Tiempo atmosférico en la estación meteorológica de Lagunas De Somoza, León (1020 m.)



Fecha
DESCASC
Temp. máxima en grados centígrados (hora)
DESCASC
Temp. mínima en grados centígrados (hora)
DESCASC
Temp. media en grados centígrados
DESCASC
Racha de viento máxima en m/sg (hora)
DESCASC
Velocidad máxima media en intervalos de 10 minutos(hora)
DESCASC
Precipitaciones diarias en mm
DESCASC
Precipitaciones de 00:00 a 06:00 en mm
DESCASC
Precipitaciones de 06:00 a 12:00 en mm
DESCASC
Precipitaciones de 12:00 a 18:00 en mm
DESCASC
Precipitaciones de 18:00 a 24:00 en mm
DESCASC
15-08-2019 30.3 (16:00) 13.8 (07:50) 22 10.56 (16:40) 6.67 (00:10) 0 0 0 0 0
14-08-2019 29.5 (16:30) 10 (00:00) 19.8 11.39 (17:10) 8.33 (23:59) 0 0 0 0 0
13-08-2019 26 (17:50) 6.3 (00:00) 16.2 7.5 (15:40) 4.17 (18:10) 0 0 0 0 0
12-08-2019 21.9 (16:20) 8.5 (00:00) 15.2 9.72 (00:20) 6.11 (06:30) 0 0 0 0 0
11-08-2019 21.4 (16:10) 11.1 (00:00) 16.3 19.72 (21:00) 9.17 (18:50) 0 0 0 0 0
10-08-2019 25.9 (17:50) 11.4 (00:00) 18.6 10 (20:50) 6.11 (21:00) 0 0 0 0 0
09-08-2019 24.1 (17:50) 15.8 (00:00) 20 19.44 (16:40) 8.06 (16:50) 0.5 0.3 0.2 0 0
08-08-2019 25.5 (18:20) 16.3 (00:00) 20.9 15.56 (16:20) 7.22 (14:30) 0 0 0 0 0
07-08-2019 24.4 (15:10) 14.7 (00:00) 19.5 8.33 (16:20) 6.11 (16:20) 1.6 0 0 0 1.6
06-08-2019 28.7 (16:20) 13.2 (00:00) 21 11.11 (18:20) 7.22 (18:20) 0 0 0 0 0
05-08-2019 31.1 (17:00) 12.1 (00:00) 21.6 8.61 (17:00) 5.28 (20:20) 0 0 0 0 0
04-08-2019 30.8 (14:50) 13.8 (00:00) 22.3 10.28 (16:20) 6.67 (19:40) 0 0 0 0 0
03-08-2019 32.5 (16:00) 15.6 (00:00) 24.1 10 (19:30) 6.39 (19:20) 0 0 0 0 0
02-08-2019 31.1 (17:30) 10.9 (00:00) 21 8.06 (17:40) 3.89 (17:40) 0 0 0 0 0
01-08-2019 29.1 (17:10) 11.7 (00:00) 20.4 7.78 (16:10) 4.72 (20:30) 0 0 0 0 0
31-07-2019 26.6 (19:40) 8.3 (00:00) 17.5 8.06 (15:30) 3.89 (15:10) 0 0 0 0 0
30-07-2019 23.5 (18:30) 9.6 (00:00) 16.6 11.11 (04:00) 7.5 (04:00) 0 0 0 0 0
29-07-2019 22.1 (17:10) 11.2 (00:00) 16.7 18.33 (14:40) 8.89 (14:40) 0 0 0 0 0
28-07-2019 26.1 (17:00) 7.4 (00:00) 16.8 8.33 (15:20) 3.61 (12:30) 0 0 0 0 0
27-07-2019 21.7 (17:40) 12.8 (00:00) 17.3 10.83 (16:00) 6.94 (16:10) 2.2 0.2 1 1 0
26-07-2019 23.7 (17:50) 12.1 (00:00) 17.9 11.67 (20:00) 7.5 (20:00) 0 0 0 0 0
25-07-2019 29.6 (14:30) 14.9 (00:00) 22.3 11.67 (12:40) 6.67 (12:40) 0 0 0 0 0
24-07-2019 32 (17:50) 16.2 (00:00) 24.1 11.39 (17:10) 6.67 (16:20) 0 0 0 0 0
23-07-2019 33.2 (18:40) 16.1 (00:00) 24.7 10.83 (19:30) 5.83 (19:30) 5.8 0 0 0 5.8
22-07-2019 34.9 (18:50) 15.4 (00:00) 25.2 19.17 (20:20) 9.44 (20:20) 0.1 0 0 0 0.1
21-07-2019 32.6 (17:30) 12.6 (00:00) 22.6 7.78 (19:50) 4.72 (19:40) 0 0 0 0 0
20-07-2019 30.7 (15:30) 14 (00:00) 22.4 10.56 (20:00) 6.67 (20:00) 0 0 0 0 0
19-07-2019 32.2 (15:50) 12.3 (00:00) 22.3 11.67 (16:40) 6.11 (19:20) 0 0 0 0 0

Gráficas

Temp. máximas Temp. mínimas Temp. medias Precipitaciones Rachas de viento máximas Velocidades máximas media en intervalos de 10 minutos

Datos horarios

Fecha y hora oficial Temperatura (ºC) Velocidad del viento (km/h) Dirección del viento Racha (km/h) Dirección de racha Precipitación (mm) Presión (hPa) Tendencia (hPa) Humedad (%)
2019-08-17 23:00:00 21.7 -- -- 18 Norte 0 900.8 1 50
2019-08-17 22:00:00 23.3 -- -- 21 Norte 0 900.5 0.7 44
2019-08-17 21:00:00 26.3 -- -- 30 Norte 0 900.1 0.1 36
2019-08-17 20:00:00 28.9 -- -- 34 Norte 0 899.8 -0.3 31
2019-08-17 19:00:00 30.2 -- -- 34 Norte 0 899.8 -0.9 30
2019-08-17 18:00:00 30.3 -- -- 33 Norte 0 900 -1.3 29
2019-08-17 17:00:00 30.1 -- -- 37 Norte 0 900.1 -1.6 29
2019-08-17 16:00:00 31.5 -- -- 27 Norte 0 900.7 -1.6 29
2019-08-17 15:00:00 31.2 -- -- 42 Norte 0 901.3 -1.5 30
2019-08-17 14:00:00 29.7 -- -- 24 Norte 0 901.7 -1.5 32
2019-08-17 13:00:00 28.7 -- -- 15 Norte 0 902.3 -0.9 33
2019-08-17 12:00:00 26.6 -- -- 12 Norte 0 902.8 -0.3 37
2019-08-17 11:00:00 25 -- -- 11 Norte 0 903.2 0.2 40
2019-08-17 10:00:00 22.5 -- -- 10 Norte 0 903.2 0.4 45
2019-08-17 09:00:00 18.9 -- -- 10 Norte 0 903.1 0.4 55
2019-08-17 08:00:00 13.6 -- -- 10 Norte 0 903 0.8 69
2019-08-17 07:00:00 14.2 -- -- 8 Norte 0 902.8 0.1 58
2019-08-17 06:00:00 17.3 -- -- 20 Norte 0 902.7 -0.3 48
2019-08-17 05:00:00 18.6 -- -- 19 Norte 0 902.2 -1.2 45
2019-08-17 04:00:00 18.4 -- -- 22 Norte 0 902.7 -0.8 40
2019-08-17 03:00:00 17.1 -- -- 24 Norte 0 903 -0.4 51
2019-08-17 02:00:00 17.6 -- -- 11 Norte 0 903.4 0 62
2019-08-17 01:00:00 18.7 -- -- 27 Norte 0 903.5 0.6 62
2019-08-17 00:00:00 20.9 -- -- 32 Norte 0 903.4 0.9 52
2019-08-16 23:00:00 21.9 -- -- 35 Norte 0 903.4 1.1 51
2019-08-16 22:00:00 23.5 -- -- 41 Norte 0 902.9 0.5 36
2019-08-16 21:00:00 25.5 -- -- 39 Norte 0 902.5 0.1 26
2019-08-16 20:00:00 27.1 -- -- 40 Norte 0 902.3 -0.4 24
2019-08-16 19:00:00 29.8 -- -- 38 Norte 0 902.4 -0.5 22
2019-08-16 18:00:00 31.2 -- -- 32 Norte 0 902.4 -0.8 20
2019-08-16 17:00:00 31.4 -- -- 31 Norte 0 902.7 -0.9 24
2019-08-16 16:00:00 31.7 -- -- 28 Norte 0 902.9 -1.2 24
2019-08-16 15:00:00 30.5 -- -- 20 Norte 0 903.2 -1.3 28
2019-08-16 14:00:00 29.4 -- -- 18 Norte 0 903.6 -1.1 31
2019-08-16 13:00:00 27.7 -- -- 17 Norte 0 904.1 -0.7 34
2019-08-16 12:00:00 26.3 -- -- 15 Norte 0 904.5 -0.3 39
2019-08-16 11:00:00 24.5 -- -- 10 Norte 0 904.7 -0.1 44
2019-08-16 10:00:00 22.6 -- -- 9 Norte 0 904.8 0 51
2019-08-16 09:00:00 17.8 -- -- 5 Norte 0 904.8 -0.1 76
2019-08-16 08:00:00 13.2 -- -- 6 Norte 0 904.8 -0.6 88
2019-08-16 07:00:00 13 -- -- 8 Norte 0 904.8 -0.8 87
2019-08-16 06:00:00 13.6 -- -- 9 Norte 0 904.9 -0.9 86
2019-08-16 05:00:00 14.2 -- -- 7 Norte 0 905.4 -0.7 82
2019-08-16 04:00:00 15.9 -- -- 11 Norte 0 905.6 -0.8 78
2019-08-16 03:00:00 16.2 -- -- 12 Norte 0 905.8 -0.1 74
2019-08-16 02:00:00 16.3 -- -- 9 Norte 0 906.1 0.2 69
2019-08-16 01:00:00 18.8 -- -- 20 Norte 0 906.4 0.7 62
2019-08-16 00:00:00 19.4 -- -- 15 Norte 0 905.9 0.8 58
2019-08-15 23:00:00 20.9 -- -- 20 Norte 0 905.9 1 53
2019-08-15 22:00:00 22.4 -- -- 23 Norte 0 905.7 1 49
2019-08-15 21:00:00 24.6 -- -- 32 Norte 0 905.1 0.4 43
2019-08-15 20:00:00 26.8 -- -- 34 Norte 0 904.9 -0.1 39
2019-08-15 19:00:00 28.3 -- -- 31 Norte 0 904.7 -0.6 37
2019-08-15 18:00:00 29.4 -- -- 30 Norte 0 904.7 -1 33
2019-08-15 17:00:00 27.9 -- -- 38 Norte 0 905 -0.9 35
2019-08-15 16:00:00 30 -- -- 21 Norte 0 905.3 -1.1 35
2019-08-15 15:00:00 28.2 -- -- 23 Norte 0 905.7 -1.1 37
2019-08-15 14:00:00 28.6 -- -- 22 Norte 0 905.9 -1 37
2019-08-15 13:00:00 26.9 -- -- 23 Norte 0 906.4 -0.5 40
2019-08-15 12:00:00 25.4 -- -- 20 Norte 0 906.8 -0.1 41
2019-08-15 11:00:00 24.6 -- -- 22 Norte 0 906.9 0.3 38
2019-08-15 10:00:00 22.8 -- -- 20 Norte 0 906.9 0.6 36
2019-08-15 09:00:00 21.1 -- -- 14 Norte 0 906.9 0.6 33
2019-08-15 08:00:00 14.1 -- -- 6 Norte 0 906.6 0.2 47
2019-08-15 07:00:00 14.7 -- -- 14 Norte 0 906.3 0.1 43
2019-08-15 06:00:00 15.4 -- -- 13 Norte 0 906.3 0.3 53
2019-08-15 05:00:00 16 -- -- 20 Norte 0 906.4 0.4 57
2019-08-15 04:00:00 16.7 -- -- 16 Norte 0 906.2 -0.3 71
2019-08-15 03:00:00 17.5 -- -- 26 Norte 0 906 -0.1 43
2019-08-15 02:00:00 18.7 -- -- 21 Norte 0 906 -0.3 57
2019-08-15 01:00:00 18.3 -- -- 34 Norte 0 906.5 0.6 74
2019-08-15 00:00:00 19.5 -- -- 41 Norte 0 906.1 0.7 70
2019-08-14 23:00:00 20.3 -- -- 32 Norte 0 906.3 1.3 66
2019-08-14 22:00:00 20.8 -- -- 37 Norte 0 905.9 0.9 62
2019-08-14 21:00:00 22.8 -- -- 35 Norte 0 905.4 0.4 55
2019-08-14 20:00:00 25 -- -- 38 Norte 0 905 -0.1 48
2019-08-14 19:00:00 26.9 -- -- 40 Norte 0 905 -0.5 40
2019-08-14 18:00:00 27.8 -- -- 41 Norte 0 905 -0.6 37
2019-08-14 17:00:00 28.2 -- -- 39 Norte 0 905.1 -0.7 37
2019-08-14 16:00:00 28.4 -- -- 38 Norte 0 905.5 -0.6 37
2019-08-14 15:00:00 27.1 -- -- 33 Norte 0 905.6 -0.6 37
2019-08-14 14:00:00 27.3 -- -- 27 Norte 0 905.8 -0.4 39
2019-08-14 13:00:00 26.8 -- -- 17 Norte 0 906.1 -0.1 37
2019-08-14 12:00:00 25.1 -- -- 16 Norte 0 906.2 -0.1 37
2019-08-14 11:00:00 22.9 -- -- 12 Norte 0 906.2 0.3 39
2019-08-14 10:00:00 19.7 -- -- 6 Norte 0 906.2 0 44
2019-08-14 09:00:00 16.8 -- -- 9 Norte 0 906.3 0.2 55
2019-08-14 08:00:00 10.9 -- -- 9 Norte 0 905.9 -0.3 69
2019-08-14 07:00:00 10.1 -- -- 10 Norte 0 906.2 0.3 71
2019-08-14 06:00:00 10.5 -- -- 10 Norte 0 906.1 0.2 65
2019-08-14 05:00:00 11.5 -- -- 13 Norte 0 906.2 0.1 55
2019-08-14 04:00:00 13.3 -- -- 10 Norte 0 905.9 -0.4 47
2019-08-14 03:00:00 14.4 -- -- 17 Norte 0 905.9 -0.2 46
2019-08-14 02:00:00 16 -- -- 12 Norte 0 906.1 0.1 45
2019-08-14 01:00:00 15.3 -- -- 10 Norte 0 906.3 0.9 42
2019-08-14 00:00:00 16.6 -- -- 20 Norte 0 906.1 0.8 40
2019-08-13 23:00:00 17.2 -- -- 18 Norte 0 906 1 38
2019-08-13 22:00:00 19.9 -- -- 21 Norte 0 905.4 0.6 33
2019-08-13 21:00:00 22.8 -- -- 21 Norte 0 905.3 0.5 26
2019-08-13 20:00:00 24.9 -- -- 26 Norte 0 905 -0.3 24
2019-08-13 19:00:00 25.4 -- -- 24 Norte 0 904.8 -1.2 26
2019-08-13 18:00:00 25.9 -- -- 24 Norte 0 904.8 -1.6 26
2019-08-13 17:00:00 24.7 -- -- 25 Norte 0 905.3 -1.5 27
2019-08-13 16:00:00 24.2 -- -- 27 Norte 0 906 -1.2 29
2019-08-13 15:00:00 22.9 -- -- 22 Norte 0 906.4 -0.9 31
2019-08-13 14:00:00 21.4 -- -- 19 Norte 0 906.8 -0.6 34
2019-08-13 13:00:00 19.8 -- -- 22 Norte 0 907.2 -0.5 41
2019-08-13 12:00:00 17.6 -- -- 19 Norte 0 907.3 -0.3 48
2019-08-13 11:00:00 15.6 -- -- 17 Norte 0 907.4 -0.1 53
2019-08-13 10:00:00 14.3 -- -- 12 Norte 0 907.7 0.4 64
2019-08-13 09:00:00 11.4 -- -- 5 Norte 0 907.6 0.7 86
2019-08-13 08:00:00 6.7 -- -- 7 Norte 0 907.5 0.4 94
2019-08-13 07:00:00 6.4 -- -- 9 Norte 0 907.3 0 93
2019-08-13 06:00:00 6.8 -- -- 9 Norte 0 906.9 -0.6 90
2019-08-13 05:00:00 7.3 -- -- 11 Norte 0 907.1 -0.6 89
2019-08-13 04:00:00 7.7 -- -- 9 Norte 0 907.3 -0.5 84
2019-08-13 03:00:00 8.7 -- -- 10 Norte 0 907.5 -0.2 79
2019-08-13 02:00:00 11.3 -- -- 12 Norte 0 907.7 0.3 69
2019-08-13 01:00:00 13.4 -- -- 13 Norte 0 907.8 1.1 63
2019-08-13 00:00:00 13.7 -- -- 13 Norte 0 907.7 1.5 51
2019-08-12 23:00:00 15.7 -- -- 13 Norte 0 907.4 1.7 45
2019-08-12 22:00:00 16.4 -- -- 19 Norte 0 906.7 0.9 42
2019-08-12 21:00:00 17.6 -- -- 19 Norte 0 906.2 0 38
2019-08-12 20:00:00 20.2 -- -- 17 Norte 0 905.7 -0.5 30
2019-08-12 19:00:00 18.5 -- -- 24 Norte 0 905.8 -0.8 30
2019-08-12 18:00:00 18.9 -- -- 32 Norte 0 906.2 -0.9 30
2019-08-12 17:00:00 20.4 -- -- 21 Norte 0 906.2 -1.1 28
2019-08-12 16:00:00 21.1 -- -- 22 Norte 0 906.6 -1 29
2019-08-12 15:00:00 19.7 -- -- 33 Norte 0 907.1 -0.6 30
2019-08-12 14:00:00 19.1 -- -- 28 Norte 0 907.3 -0.2 34
2019-08-12 13:00:00 17.8 -- -- 29 Norte 0 907.6 0.4 37
2019-08-12 12:00:00 16.7 -- -- 23 Norte 0 907.7 1 44
2019-08-12 11:00:00 14.8 -- -- 27 Norte 0 907.5 1.1 48
2019-08-12 10:00:00 13.3 -- -- 31 Norte 0 907.2 1.2 59
2019-08-12 09:00:00 11.9 -- -- 28 Norte 0 906.7 1 68
2019-08-12 08:00:00 9.7 -- -- 27 Norte 0 906.4 0.6 82
2019-08-12 07:00:00 9.5 -- -- 27 Norte 0 906 0.3 83
2019-08-12 06:00:00 8.8 -- -- 21 Norte 0 905.7 0 85
2019-08-12 05:00:00 9.1 -- -- 18 Norte 0 905.8 -0.3 83
2019-08-12 04:00:00 10 -- -- 22 Norte 0 905.7 -0.2 78
2019-08-12 03:00:00 10.5 -- -- 31 Norte 0 905.7 0 78
2019-08-12 02:00:00 10.6 -- -- 28 Norte 0 906.1 0.9 75
2019-08-12 01:00:00 11.2 -- -- 35 Norte 0 905.9 1.5 72
2019-08-12 00:00:00 12 -- -- 26 Norte 0 905.7 1.7 68
2019-08-11 23:00:00 12.5 -- -- 32 Norte 0 905.2 1.4 63
2019-08-11 22:00:00 13 -- -- 35 Norte 0 904.4 0.8 59
2019-08-11 21:00:00 14.4 -- -- 71 Norte 0 904 1.1 54
2019-08-11 20:00:00 15.9 -- -- 71 Norte 0 903.8 1 48
2019-08-11 19:00:00 16.7 -- -- 69 Norte 0 903.6 0.5 47
2019-08-11 18:00:00 19.2 -- -- 69 Norte 0 902.9 -0.1 37
2019-08-11 17:00:00 20.4 -- -- 43 Norte 0 902.8 -0.4 31
2019-08-11 16:00:00 20.9 -- -- 42 Norte 0 903.1 -0.4 30
2019-08-11 15:00:00 20.6 -- -- 35 Norte 0 903 -0.6 31
2019-08-11 14:00:00 20 -- -- 35 Norte 0 903.2 -0.1 33
2019-08-11 13:00:00 19.5 -- -- 25 Norte 0 903.5 0.4 39
2019-08-11 12:00:00 18.4 -- -- 23 Norte 0 903.6 0.7 45
2019-08-11 11:00:00 16.7 -- -- 25 Norte 0 903.3 0.5 52
2019-08-11 10:00:00 15.7 -- -- 26 Norte 0 903.1 0.6 64
2019-08-11 09:00:00 14.4 -- -- 11 Norte 0 902.9 0.3 73
2019-08-11 08:00:00 12.3 -- -- 8 Norte 0 902.8 0.2 85
2019-08-11 07:00:00 11.3 -- -- 10 Norte 0 902.5 -0.6 83
2019-08-11 06:00:00 13 -- -- 11 Norte 0 902.6 -0.9 79
2019-08-11 05:00:00 13.9 -- -- 8 Norte 0 902.6 -0.9 74
2019-08-11 04:00:00 15.1 -- -- 26 Norte 0 903.1 -0.4 68
2019-08-11 03:00:00 16.4 -- -- 26 Norte 0 903.5 -0.1 51
2019-08-11 02:00:00 16.2 -- -- 15 Norte 0 903.5 -0.4 56
2019-08-11 01:00:00 16.2 -- -- 23 Norte 0 903.5 -0.1 57
2019-08-11 00:00:00 16.5 -- -- 25 Norte 0 903.6 -0.3 56
2019-08-10 23:00:00 16.9 -- -- 28 Norte 0 903.9 0.3 53
2019-08-10 22:00:00 17.3 -- -- 34 Norte 0 903.6 0.3 51
2019-08-10 21:00:00 18.3 -- -- 36 Norte 0 903.9 0.6 45
2019-08-10 20:00:00 20.4 -- -- 34 Norte 0 903.6 0.2 37
2019-08-10 19:00:00 22 -- -- 32 Norte 0 903.3 -0.9 36
2019-08-10 18:00:00 23 -- -- 32 Norte 0 903.3 -1.2 30
2019-08-10 17:00:00 24.9 -- -- 22 Norte 0 903.4 -1.6 23
2019-08-10 16:00:00 24.1 -- -- 28 Norte 0 904.2 -1 28
2019-08-10 15:00:00 23.6 -- -- 27 Norte 0 904.5 -1.1 29
2019-08-10 14:00:00 22.7 -- -- 21 Norte 0 905 -0.6 32
2019-08-10 13:00:00 20.3 -- -- 24 Norte 0 905.2 -0.4 40
2019-08-10 12:00:00 19.3 -- -- 23 Norte 0 905.6 0.3 42
2019-08-10 11:00:00 18.4 -- -- 16 Norte 0 905.6 0.8 41
2019-08-10 10:00:00 16.2 -- -- 18 Norte 0 905.6 1.3 54
2019-08-10 09:00:00 13.9 -- -- 16 Norte 0 905.3 0.7 62
2019-08-10 08:00:00 11.8 -- -- 17 Norte 0 904.8 0.8 74
2019-08-10 07:00:00 11.7 -- -- 16 Norte 0 904.3 0.4 69
2019-08-10 06:00:00 13.5 -- -- 15 Norte 0 904.6 0.6 70
2019-08-10 05:00:00 14 -- -- 17 Norte 0 904 -0.1 70
2019-08-10 04:00:00 14.3 -- -- 12 Norte 0 903.9 0 68
2019-08-10 03:00:00 14.6 -- -- 18 Norte 0 904 0.1 71
2019-08-10 02:00:00 15 -- -- 15 Norte 0 904.1 0.3 66
2019-08-10 01:00:00 15.1 -- -- 17 Norte 0 903.9 0.8 65
2019-08-10 00:00:00 15.9 -- -- 22 Norte 0 903.9 1.4 57
2019-08-09 23:00:00 15.9 -- -- 24 Norte 0 903.8 2.1 55
2019-08-09 22:00:00 16.7 -- -- 24 Norte 0 903.1 2.1 51
2019-08-09 21:00:00 19 -- -- 24 Norte 0 902.5 1.1 42
2019-08-09 20:00:00 20.3 -- -- 36 Norte 0 901.7 0.6 36
2019-08-09 19:00:00 21.2 -- -- 40 Norte 0 901 -0.1 31
2019-08-09 18:00:00 22.9 -- -- 45 Norte 0 901.4 0.4 29
2019-08-09 17:00:00 22.6 -- -- 70 Norte 0 901.1 0.6 30
2019-08-09 16:00:00 22 -- -- 41 Norte 0 901.1 0.9 30
2019-08-09 15:00:00 21.8 -- -- 40 Norte 0 901 1.2 31
2019-08-09 14:00:00 22 -- -- 36 Norte 0 900.5 1.4 29
2019-08-09 13:00:00 22.4 -- -- 24 Norte 0 900.2 1.7 28
2019-08-09 12:00:00 22.6 -- -- 20 Norte 0 899.8 2 34
2019-08-09 11:00:00 21.4 -- -- 18 Norte 0 899.1 1.5 44
2019-08-09 10:00:00 18.7 -- -- 24 Norte 0 898.5 1.4 58
2019-08-09 09:00:00 19.1 -- -- 20 Norte 0 897.8 0.8 80
2019-08-09 08:00:00 18.8 -- -- 12 Norte 0.2 897.6 0.4 93
2019-08-09 07:00:00 19.2 -- -- 19 Norte 0 897.1 -0.3 93
2019-08-09 06:00:00 18.8 -- -- 14 Norte 0.2 897 -0.8 93
2019-08-09 05:00:00 19 -- -- 28 Norte 0.1 897.2 -1.2 92
2019-08-09 04:00:00 19.2 -- -- 26 Norte 0 897.4 -1 90
2019-08-09 03:00:00 19.4 -- -- 27 Norte 0 897.8 -1.3 89
2019-08-09 02:00:00 20 -- -- 30 Norte 0 898.4 -0.7 80
2019-08-09 01:00:00 20.7 -- -- 23 Norte 0 898.4 -0.1 71
2019-08-09 00:00:00 20.9 -- -- 31 Norte 0 899.1 0.9 69
2019-08-08 23:00:00 21.2 -- -- 36 Norte 0 899.1 0.8 62
2019-08-08 22:00:00 22.3 -- -- 31 Norte 0 898.5 0.2 53
2019-08-08 21:00:00 23.1 -- -- 38 Norte 0 898.2 0 51
2019-08-08 20:00:00 23.5 -- -- 37 Norte 0 898.3 0 51
2019-08-08 19:00:00 23.9 -- -- 41 Norte 0 898.3 -0.3 58
2019-08-08 18:00:00 24.9 -- -- 54 Norte 0 898.2 -0.8 56
2019-08-08 17:00:00 24.5 -- -- 56 Norte 0 898.3 -0.8 59
2019-08-08 16:00:00 24 -- -- 43 Norte 0 898.6 -0.8 62
2019-08-08 15:00:00 23.9 -- -- 41 Norte 0 899 -0.7 63
2019-08-08 14:00:00 24.6 -- -- 34 Norte 0 899.1 -0.6 55
2019-08-08 13:00:00 22.8 -- -- 27 Norte 0 899.4 -0.2 71
2019-08-08 12:00:00 21 -- -- 22 Norte 0 899.7 0.2 82
2019-08-08 11:00:00 20.2 -- -- 20 Norte 0 899.7 0.5 82
2019-08-08 10:00:00 19.5 -- -- 19 Norte 0 899.6 0.4 88
2019-08-08 09:00:00 17.2 -- -- 16 Norte 0 899.5 0.3 97
2019-08-08 08:00:00 16.7 -- -- 10 Norte 0 899.2 -0.2 97
2019-08-08 07:00:00 16.6 -- -- 9 Norte 0 899.2 -0.4 97
2019-08-08 06:00:00 16.5 -- -- 14 Norte 0 899.2 -0.8 97
2019-08-08 05:00:00 16.8 -- -- 10 Norte 0 899.4 -0.7 97
2019-08-08 04:00:00 17 -- -- 11 Norte 0 899.6 -0.5 97
2019-08-08 03:00:00 17.4 -- -- 10 Norte 0 900 0.1 97
2019-08-08 02:00:00 17.4 -- -- 10 Norte 0 900.1 0 97
2019-08-08 01:00:00 17.2 -- -- 8 Norte 0 900.1 0.1 97
2019-08-08 00:00:00 17.2 -- -- 10 Norte 0 899.9 0.1 98
2019-08-07 23:00:00 17.4 -- -- 12 Norte 0 900.1 0.5 97
2019-08-07 22:00:00 18 -- -- 9 Norte 0 900 0.2 94
2019-08-07 21:00:00 19.1 -- -- 8 Norte 0 899.8 0.3 93
2019-08-07 20:00:00 18.9 -- -- 10 Norte 0.1 899.6 0 92
2019-08-07 19:00:00 19 -- -- 14 Norte 1.5 899.8 0.6 89
2019-08-07 18:00:00 21 -- -- 22 Norte 0 899.5 0 64
2019-08-07 17:00:00 22.2 -- -- 30 Norte 0 899.6 -0.4 58
2019-08-07 16:00:00 24 -- -- 24 Norte 0 899.2 -0.7 50
2019-08-07 15:00:00 24.3 -- -- 23 Norte 0 899.5 -0.4 49
2019-08-07 14:00:00 22.3 -- -- 25 Norte 0 900 0.3 55
2019-08-07 13:00:00 23.5 -- -- 22 Norte 0 899.9 0.2 50
2019-08-07 12:00:00 22.9 -- -- 20 Norte 0 899.9 0.6 51
2019-08-07 11:00:00 22.5 -- -- 18 Norte 0 899.7 0.7 54
2019-08-07 10:00:00 20.5 -- -- 16 Norte 0 899.7 0.9 61
2019-08-07 09:00:00 18.1 -- -- 6 Norte 0 899.3 0.7 66
2019-08-07 08:00:00 15 -- -- 7 Norte 0 899 0.5 70
2019-08-07 07:00:00 17 -- -- 9 Norte 0 898.8 0 63
2019-08-07 06:00:00 17.8 -- -- 11 Norte 0 898.6 -0.4 59
2019-08-07 05:00:00 18.6 -- -- 18 Norte 0 898.5 -1.1 55
2019-08-07 04:00:00 18.9 -- -- 20 Norte 0 898.8 -0.7 53
2019-08-07 03:00:00 19 -- -- 17 Norte 0 899 -0.2 52
2019-08-07 02:00:00 19 -- -- 13 Norte 0 899.6 -0.2 52
2019-08-07 01:00:00 19.4 -- -- 18 Norte 0 899.5 0.4 52
2019-08-07 00:00:00 19.7 -- -- 25 Norte 0 899.2 0 52
2019-08-06 23:00:00 19.5 -- -- 31 Norte 0 899.8 0.8 65
2019-08-06 22:00:00 20 -- -- 28 Norte 0 899.1 0.4 63
2019-08-06 21:00:00 20.5 -- -- 32 Norte 0 899.2 0.2 62
2019-08-06 20:00:00 20.8 -- -- 37 Norte 0 899 0.1 61
2019-08-06 19:00:00 22.3 -- -- 40 Norte 0 898.7 -0.3 58
2019-08-06 18:00:00 24.9 -- -- 35 Norte 0 899 -0.6 46
2019-08-06 17:00:00 26.7 -- -- 26 Norte 0 898.9 -1.2 44
2019-08-06 16:00:00 27.6 -- -- 25 Norte 0 899 -1.3 40
2019-08-06 15:00:00 27.5 -- -- 20 Norte 0 899.6 -0.9 40
2019-08-06 14:00:00 26.2 -- -- 22 Norte 0 900.1 -0.7 45
2019-08-06 13:00:00 25.4 -- -- 19 Norte 0 900.3 -0.8 48
2019-08-06 12:00:00 24.5 -- -- 15 Norte 0 900.5 -0.4 52
2019-08-06 11:00:00 22.4 -- -- 14 Norte 0 900.8 0.2 62
2019-08-06 10:00:00 19.9 -- -- 11 Norte 0 901.1 0.7 73
2019-08-06 09:00:00 17.6 -- -- 7 Norte 0 900.9 0.1 90
2019-08-06 08:00:00 14.4 -- -- 8 Norte 0 900.6 -0.5 92
2019-08-06 07:00:00 13.8 -- -- 10 Norte 0 900.4 -0.8 91
2019-08-06 06:00:00 13.6 -- -- 7 Norte 0 900.8 -0.2 91
2019-08-06 05:00:00 14.3 -- -- 7 Norte 0 901.1 0 90
2019-08-06 04:00:00 16.6 -- -- 12 Norte 0 901.2 -0.2 83
2019-08-06 03:00:00 17.7 -- -- 14 Norte 0 901 -0.3 75
2019-08-06 02:00:00 19.2 -- -- 15 Norte 0 901.1 -0.1 71
2019-08-06 01:00:00 20.2 -- -- 27 Norte 0 901.4 0.8 69
2019-08-06 00:00:00 20.8 -- -- 26 Norte 0 901.3 1 65
2019-08-05 23:00:00 22.1 -- -- 26 Norte 0 901.2 1.2 58
2019-08-05 22:00:00 23.2 -- -- 22 Norte 0 900.6 0.7 50
2019-08-05 21:00:00 26.2 -- -- 30 Norte 0 900.3 0.2 37
2019-08-05 20:00:00 28.5 -- -- 28 Norte 0 900 -0.3 32
2019-08-05 19:00:00 29.5 -- -- 28 Norte 0 899.9 -0.7 30
2019-08-05 18:00:00 30.1 -- -- 22 Norte 0 900.1 -0.7 30
2019-08-05 17:00:00 30.7 -- -- 31 Norte 0 900.3 -1 30
2019-08-05 16:00:00 29.3 -- -- 24 Norte 0 900.6 -1.3 31
2019-08-05 15:00:00 29.6 -- -- 18 Norte 0 900.8 -1.5 32
2019-08-05 14:00:00 27.8 -- -- 20 Norte 0 901.3 -1.3 37
2019-08-05 13:00:00 26.6 -- -- 17 Norte 0 901.9 -0.8 38
2019-08-05 12:00:00 24.3 -- -- 14 Norte 0 902.3 -0.5 49
2019-08-05 11:00:00 22.5 -- -- 14 Norte 0 902.6 -0.3 58
2019-08-05 10:00:00 20.8 -- -- 12 Norte 0 902.7 0 67
2019-08-05 09:00:00 17.9 -- -- 10 Norte 0 902.8 0.2 83
2019-08-05 08:00:00 13.3 -- -- 11 Norte 0 902.9 0.2 93
2019-08-05 07:00:00 12.6 -- -- 10 Norte 0 902.7 0 92
2019-08-05 06:00:00 12.4 -- -- 10 Norte 0 902.6 -0.1 87
2019-08-05 05:00:00 12.2 -- -- 7 Norte 0 902.7 0.3 86
2019-08-05 04:00:00 14.3 -- -- 13 Norte 0 902.7 0 78
2019-08-05 03:00:00 14.9 -- -- 14 Norte 0 902.7 0.2 79
2019-08-05 02:00:00 15.9 -- -- 10 Norte 0 902.4 -0.2 74
2019-08-05 01:00:00 17.7 -- -- 14 Norte 0 902.7 0.7 68
2019-08-05 00:00:00 19.4 -- -- 24 Norte 0 902.5 1.2 62
2019-08-04 23:00:00 20.7 -- -- 26 Norte 0 902.6 1.8 56
2019-08-04 22:00:00 22 -- -- 29 Norte 0 902 1.7 50
2019-08-04 21:00:00 24.5 -- -- 33 Norte 0 901.3 1 41
2019-08-04 20:00:00 27.7 -- -- 32 Norte 0 900.8 0.4 36
2019-08-04 19:00:00 29 -- -- 34 Norte 0 900.3 -0.4 34
2019-08-04 18:00:00 28 -- -- 29 Norte 0 900.3 -0.4 37
2019-08-04 17:00:00 29.4 -- -- 37 Norte 0 900.4 -0.3 36
2019-08-04 16:00:00 29.8 -- -- 34 Norte 0 900.7 -0.5 35
2019-08-04 15:00:00 29.8 -- -- 33 Norte 0 900.7 -0.8 32
2019-08-04 14:00:00 30 -- -- 34 Norte 0 900.7 -0.9 28
2019-08-04 13:00:00 28.1 -- -- 30 Norte 0 901.2 -0.7 34
2019-08-04 12:00:00 26.4 -- -- 23 Norte 0 901.5 -0.3 44
2019-08-04 11:00:00 24.4 -- -- 22 Norte 0 901.6 0.2 54
2019-08-04 10:00:00 22.4 -- -- 13 Norte 0 901.9 0.6 57
2019-08-04 09:00:00 20.3 -- -- 5 Norte 0 901.8 0.5 66
2019-08-04 08:00:00 14.8 -- -- 8 Norte 0 901.4 -0.1 83
2019-08-04 07:00:00 14.3 -- -- 10 Norte 0 901.3 -0.4 84
2019-08-04 06:00:00 14.5 -- -- 14 Norte 0 901.3 -0.3 86
2019-08-04 05:00:00 14.2 -- -- 6 Norte 0 901.5 -0.1 89
2019-08-04 04:00:00 15.7 -- -- 4 Norte 0 901.7 0.1 84
2019-08-04 03:00:00 17.9 -- -- 14 Norte 0 901.6 0.1 75
2019-08-04 02:00:00 19.9 -- -- 17 Norte 0 901.6 0.2 69
2019-08-04 01:00:00 20.1 -- -- 17 Norte 0 901.6 0.7 67
2019-08-04 00:00:00 21.5 -- -- 26 Norte 0 901.5 0.9 60
2019-08-03 23:00:00 22.5 -- -- 33 Norte 0 901.4 1.3 52
2019-08-03 22:00:00 23.3 -- -- 31 Norte 0 900.9 1 45
2019-08-03 21:00:00 25.6 -- -- 34 Norte 0 900.6 0.7 34
2019-08-03 20:00:00 28.2 -- -- 36 Norte 0 900.1 0.1 30
2019-08-03 19:00:00 30.1 -- -- 30 Norte 0 899.9 -0.3 28
2019-08-03 18:00:00 31 -- -- 28 Norte 0 899.9 -0.6 30
2019-08-03 17:00:00 30.7 -- -- 27 Norte 0 900 -1.1 30
2019-08-03 16:00:00 32.3 -- -- 27 Norte 0 900.2 -1.3 27
2019-08-03 15:00:00 31.7 -- -- 26 Norte 0 900.5 -1.3 26
2019-08-03 14:00:00 30.4 -- -- 23 Norte 0 901.1 -0.7 30
2019-08-03 13:00:00 29.1 -- -- 19 Norte 0 901.5 -0.6 32
2019-08-03 12:00:00 27.5 -- -- 13 Norte 0 901.8 -0.2 36
2019-08-03 11:00:00 25.8 -- -- 17 Norte 0 901.8 -0.1 41
2019-08-03 10:00:00 24.3 -- -- 11 Norte 0 902.1 0.1 45
2019-08-03 09:00:00 21.1 -- -- 6 Norte 0 902 -0.1 61
2019-08-03 08:00:00 16.2 -- -- 10 Norte 0 901.9 -0.4 73
2019-08-03 07:00:00 16.2 -- -- 12 Norte 0 902 -0.6 74
2019-08-03 06:00:00 16.8 -- -- 14 Norte 0 902.1 -0.7 74
2019-08-03 05:00:00 16.3 -- -- 13 Norte 0 902.3 -0.7 74
2019-08-03 04:00:00 17.1 -- -- 12 Norte 0 902.6 -0.1 70
2019-08-03 03:00:00 18.1 -- -- 14 Norte 0 902.8 0.1 66
2019-08-03 02:00:00 19.3 -- -- 20 Norte 0 903 0.3 59
2019-08-03 01:00:00 20.9 -- -- 15 Norte 0 902.7 0.6 56
2019-08-03 00:00:00 21.9 -- -- 17 Norte 0 902.7 0.7 52
2019-08-02 23:00:00 21.6 -- -- 14 Norte 0 902.7 1.1 53
2019-08-02 22:00:00 24.7 -- -- 14 Norte 0 902.1 0.5 41
2019-08-02 21:00:00 28.5 -- -- 16 Norte 0 902 0.2 26
2019-08-02 20:00:00 29.3 -- -- 24 Norte 0 901.6 -0.4 26
2019-08-02 19:00:00 30.2 -- -- 24 Norte 0 901.6 -0.9 26
2019-08-02 18:00:00 30 -- -- 29 Norte 0 901.8 -1 27
2019-08-02 17:00:00 30.5 -- -- 27 Norte 0 902 -1.1 25
2019-08-02 16:00:00 30 -- -- 19 Norte 0 902.5 -0.8 26
2019-08-02 15:00:00 28.6 -- -- 19 Norte 0 902.8 -0.8 29
2019-08-02 14:00:00 27.9 -- -- 18 Norte 0 903.1 -0.5 30
2019-08-02 13:00:00 26.5 -- -- 19 Norte 0 903.3 -0.3 34
2019-08-02 12:00:00 25.2 -- -- 19 Norte 0 903.6 0.3 35
2019-08-02 11:00:00 22.8 -- -- 14 Norte 0 903.6 0.4 45
2019-08-02 10:00:00 19.9 -- -- 6 Norte 0 903.6 0.7 68
2019-08-02 09:00:00 16.2 -- -- 0 Calma 0 903.3 0.5 87
2019-08-02 08:00:00 12 -- -- 4 Norte 0 903.2 0.3 96
2019-08-02 07:00:00 11.1 -- -- 5 Norte 0 902.9 0 95
2019-08-02 06:00:00 12.1 -- -- 10 Norte 0 902.8 -0.2 92
2019-08-02 05:00:00 12.5 -- -- 9 Norte 0 902.9 -0.2 89
2019-08-02 04:00:00 13.7 -- -- 8 Norte 0 902.9 -0.2 85
2019-08-02 03:00:00 14.6 -- -- 11 Norte 0 903 0.7 80
2019-08-02 02:00:00 16 -- -- 9 Norte 0 903.1 1.4 78
2019-08-02 01:00:00 17.8 -- -- 16 Norte 0 903.1 2 69
2019-08-02 00:00:00 19.8 -- -- 17 Norte 0 902.3 1.7 61
2019-08-01 23:00:00 20.3 -- -- 22 Norte 0 901.7 1.8 55
2019-08-01 22:00:00 22.9 -- -- 27 Norte 0 901.1 1.3 44
2019-08-01 21:00:00 24.7 -- -- 28 Norte 0 900.6 0.9 39
2019-08-01 20:00:00 26.8 -- -- 24 Norte 0 899.9 0.3 34
2019-08-01 19:00:00 27.1 -- -- 15 Norte 0 899.8 0 32
2019-08-01 18:00:00 27.1 -- -- 17 Norte 0 899.7 -0.3 33
2019-08-01 17:00:00 28.9 -- -- 28 Norte 0 899.6 -0.4 31
2019-08-01 16:00:00 28.2 -- -- 24 Norte 0 899.8 -0.3 33
2019-08-01 15:00:00 26.3 -- -- 21 Norte 0 900 -0.2 37
2019-08-01 14:00:00 25.9 -- -- 22 Norte 0 900 -0.3 38
2019-08-01 13:00:00 26.1 -- -- 19 Norte 0 900.1 -0.1 37
2019-08-01 12:00:00 24.6 -- -- 15 Norte 0 900.2 0.2 40
2019-08-01 11:00:00 22.9 -- -- 16 Norte 0 900.3 0.5 46
2019-08-01 10:00:00 21.6 -- -- 10 Norte 0 900.2 0.5 50
2019-08-01 09:00:00 19 -- -- 10 Norte 0 900 0.4 61
2019-08-01 08:00:00 12.5 -- -- 8 Norte 0 899.8 -0.1 83
2019-08-01 07:00:00 12.1 -- -- 10 Norte 0 899.7 -0.8 81
2019-08-01 06:00:00 13.3 -- -- 11 Norte 0 899.6 -1.3 76
2019-08-01 05:00:00 13.9 -- -- 12 Norte 0 899.9 -1.4 72
2019-08-01 04:00:00 14.8 -- -- 15 Norte 0 900.5 -0.9 67
2019-08-01 03:00:00 16.3 -- -- 17 Norte 0 900.9 0 60
2019-08-01 02:00:00 15 -- -- 10 Norte 0 901.3 0.3 62
2019-08-01 01:00:00 16.4 -- -- 17 Norte 0 901.4 0.7 54
2019-08-01 00:00:00 17.3 -- -- 10 Norte 0 900.9 0.5 48
2019-07-31 23:00:00 20.1 -- -- 11 Norte 0 901 0.6 41
2019-07-31 22:00:00 20.7 -- -- 12 Norte 0 900.7 0 31
2019-07-31 21:00:00 23.5 -- -- 16 Norte 0 900.4 -0.6 28
2019-07-31 20:00:00 25.3 -- -- 16 Norte 0 900.4 -1.1 27
2019-07-31 19:00:00 26.1 -- -- 19 Norte 0 900.7 -1.5 27
2019-07-31 18:00:00 25.6 -- -- 20 Norte 0 901 -1.2 29
2019-07-31 17:00:00 25 -- -- 22 Norte 0 901.5 -1.2 30
2019-07-31 16:00:00 24.5 -- -- 29 Norte 0 902.2 -0.9 32
2019-07-31 15:00:00 24.3 -- -- 22 Norte 0 902.2 -1.4 32
2019-07-31 14:00:00 24.7 -- -- 20 Norte 0 902.7 -1.3 34
2019-07-31 13:00:00 23 -- -- 14 Norte 0 903.1 -1.3 39
2019-07-31 12:00:00 20.1 -- -- 11 Norte 0 903.6 -1 45
2019-07-31 11:00:00 18.3 -- -- 9 Norte 0 904 -0.7 54
2019-07-31 10:00:00 15 -- -- 10 Norte 0 904.4 -0.1 69
2019-07-31 09:00:00 13.3 -- -- 7 Norte 0 904.6 0.2 82
2019-07-31 08:00:00 9.3 -- -- 6 Norte 0 904.7 0.1 94
2019-07-31 07:00:00 9 -- -- 7 Norte 0 904.5 0 90
2019-07-31 06:00:00 9.8 -- -- 4 Norte 0 904.4 -0.5 86
2019-07-31 05:00:00 10.5 -- -- 7 Norte 0 904.6 -0.2 82
2019-07-31 04:00:00 10.7 -- -- 10 Norte 0 904.5 -0.4 76
2019-07-31 03:00:00 11.8 -- -- 11 Norte 0 904.9 0.7 72
2019-07-31 02:00:00 11.2 -- -- 7 Norte 0 904.8 0.9 67
2019-07-31 01:00:00 14.6 -- -- 23 Norte 0 904.9 1.4 58
2019-07-31 00:00:00 14.8 -- -- 16 Norte 0 904.2 0.9 53
2019-07-30 23:00:00 16.1 -- -- 21 Norte 0 903.9 0.7 47
2019-07-30 22:00:00 17.8 -- -- 27 Norte 0 903.5 0.2 40
2019-07-30 21:00:00 20.1 -- -- 26 Norte 0 903.3 -0.2 37
2019-07-30 20:00:00 21.4 -- -- 31 Norte 0 903.2 -0.7 33
2019-07-30 19:00:00 22.2 -- -- 31 Norte 0 903.3 -1 35
2019-07-30 18:00:00 22.9 -- -- 29 Norte 0 903.5 -1.2 37
2019-07-30 17:00:00 22.9 -- -- 30 Norte 0 903.9 -1.2 37
2019-07-30 16:00:00 21.9 -- -- 26 Norte 0 904.3 -1 37
2019-07-30 15:00:00 21.4 -- -- 24 Norte 0 904.7 -0.6 37
2019-07-30 14:00:00 20.1 -- -- 21 Norte 0 905.1 -0.1 37
2019-07-30 13:00:00 19.1 -- -- 23 Norte 0 905.3 0.1 43
2019-07-30 12:00:00 17.3 -- -- 24 Norte 0 905.3 0.5 47
2019-07-30 11:00:00 15.7 -- -- 24 Norte 0 905.2 0.7 54
2019-07-30 10:00:00 14.2 -- -- 27 Norte 0 905.2 1.2 62
2019-07-30 09:00:00 12.3 -- -- 27 Norte 0 904.8 1.2 71
2019-07-30 08:00:00 10.4 -- -- 29 Norte 0 904.5 1 79
2019-07-30 07:00:00 10.1 -- -- 26 Norte 0 904 0.3 79
2019-07-30 06:00:00 9.8 -- -- 23 Norte 0 903.6 -0.1 80
2019-07-30 05:00:00 10.4 -- -- 34 Norte 0 903.5 0 78
2019-07-30 04:00:00 11.1 -- -- 40 Norte 0 903.7 0.4 77
2019-07-30 03:00:00 11.1 -- -- 31 Norte 0 903.7 1.3 78
2019-07-30 02:00:00 11 -- -- 40 Norte 0 903.5 1.1 76
2019-07-30 01:00:00 11.7 -- -- 31 Norte 0 903.3 1.8 77
2019-07-30 00:00:00 12.3 -- -- 34 Norte 0 902.4 1.4 77
2019-07-29 23:00:00 13.5 -- -- 33 Norte 0 902.4 2 72
2019-07-29 22:00:00 14.6 -- -- 35 Norte 0 901.5 1.4 63
2019-07-29 21:00:00 17.1 -- -- 36 Norte 0 901 1.2 48
2019-07-29 20:00:00 19.5 -- -- 38 Norte 0 900.4 0.6 39
2019-07-29 19:00:00 19.9 -- -- 40 Norte 0 900.1 0.3 39
2019-07-29 18:00:00 20.7 -- -- 38 Norte 0 899.8 0.5 39
2019-07-29 17:00:00 21.8 -- -- 41 Norte 0 899.8 0.8 35
2019-07-29 16:00:00 21.1 -- -- 41 Norte 0 899.8 1.1 33
2019-07-29 15:00:00 20.9 -- -- 66 Norte 0 899.3 0.6 34
2019-07-29 14:00:00 20.5 -- -- 40 Norte 0 899 0.7 37
2019-07-29 13:00:00 21 -- -- 41 Norte 0 898.7 0.6 43
2019-07-29 12:00:00 19.1 -- -- 30 Norte 0 898.7 0.8 49
2019-07-29 11:00:00 19.7 -- -- 28 Norte 0 898.3 0.8 54
2019-07-29 10:00:00 18.1 -- -- 25 Norte 0 898.1 1 61
2019-07-29 09:00:00 16.8 -- -- 24 Norte 0 897.9 1 66
2019-07-29 08:00:00 13.6 -- -- 14 Norte 0 897.5 0.7 77
2019-07-29 07:00:00 11.9 -- -- 12 Norte 0 897.1 0.2 69
2019-07-29 06:00:00 14.3 -- -- 13 Norte 0 896.9 -0.2 61
2019-07-29 05:00:00 15.2 -- -- 19 Norte 0 896.8 -0.3 60
2019-07-29 04:00:00 14.3 -- -- 8 Norte 0 896.9 -0.4 69
2019-07-29 03:00:00 14.6 -- -- 10 Norte 0 897.1 -0.5 77
2019-07-29 02:00:00 14.9 -- -- 13 Norte 0 897.1 -0.5 72
2019-07-29 01:00:00 14.8 -- -- 8 Norte 0 897.3 0.3 67
2019-07-29 00:00:00 16.6 -- -- 10 Norte 0 897.6 0.8 58
2019-07-28 23:00:00 18.1 -- -- 8 Norte 0 897.6 1 48
2019-07-28 22:00:00 21.4 -- -- 15 Norte 0 897 0.2 40
2019-07-28 21:00:00 24.3 -- -- 17 Norte 0 896.8 -0.2 34
2019-07-28 20:00:00 25.8 -- -- 16 Norte 0 896.6 -0.7 34
2019-07-28 19:00:00 24.6 -- -- 17 Norte 0 896.8 -1 34
2019-07-28 18:00:00 25.2 -- -- 21 Norte 0 897 -1.3 34
2019-07-28 17:00:00 26.1 -- -- 18 Norte 0 897.3 -1.8 32
2019-07-28 16:00:00 24.9 -- -- 30 Norte 0 897.8 -1.6 34
2019-07-28 15:00:00 23.2 -- -- 28 Norte 0 898.3 -1.4 38
2019-07-28 14:00:00 21.9 -- -- 22 Norte 0 899.1 -0.9 42
2019-07-28 13:00:00 20.5 -- -- 22 Norte 0 899.4 -0.5 46
2019-07-28 12:00:00 18.4 -- -- 20 Norte 0 899.7 -0.2 51
2019-07-28 11:00:00 17.6 -- -- 17 Norte 0 900 0.3 58
2019-07-28 10:00:00 15.4 -- -- 15 Norte 0 899.9 0.1 63
2019-07-28 09:00:00 13.5 -- -- 5 Norte 0 899.9 0.2 81
2019-07-28 08:00:00 8.6 -- -- 6 Norte 0 899.7 0 97
2019-07-28 07:00:00 7.7 -- -- 8 Norte 0 899.8 -0.2 97
2019-07-28 06:00:00 7.4 -- -- 6 Norte 0 899.7 -0.5 96
2019-07-28 05:00:00 8.2 -- -- 5 Norte 0 899.7 -0.3 94
2019-07-28 04:00:00 8.9 -- -- 8 Norte 0 900 0.2 94
2019-07-28 03:00:00 9.3 -- -- 8 Norte 0 900.2 0.5 92
2019-07-28 02:00:00 10.4 -- -- 10 Norte 0 900 0.7 86
2019-07-28 01:00:00 11.9 -- -- 14 Norte 0 899.8 1.2 82
2019-07-28 00:00:00 13.2 -- -- 14 Norte 0 899.7 1.6 72
2019-07-27 23:00:00 14.4 -- -- 17 Norte 0 899.3 1.8 66
2019-07-26 12:00:00 19.1 -- -- 34 Norte 0 900.4 0.2 50
2019-07-26 11:00:00 17.6 -- -- 38 Norte 0 900.5 0.6 52
2019-07-26 10:00:00 15.9 -- -- 38 Norte 0 900.5 0.5 60
2019-07-26 09:00:00 15.6 -- -- 28 Norte 0 900.2 0 59
2019-07-26 08:00:00 13.3 -- -- 30 Norte 0 899.9 -0.3 69
2019-07-26 07:00:00 12.5 -- -- 28 Norte 0 900 -0.3 77
2019-07-26 06:00:00 13.3 -- -- 28 Norte 0 900.2 -0.1 77
2019-07-26 05:00:00 13.8 -- -- 27 Norte 0 900.2 -0.4 80
2019-07-26 04:00:00 14.3 -- -- 29 Norte 0 900.3 -0.2 81
2019-07-26 03:00:00 15.4 -- -- 31 Norte 0 900.3 -0.4 82
2019-07-26 02:00:00 16 -- -- 37 Norte 0 900.6 0.1 86
2019-07-26 01:00:00 16.4 -- -- 40 Norte 0 900.5 0.5 89
2019-07-26 00:00:00 17.1 -- -- 37 Norte 0 900.7 1.3 88
2019-07-25 23:00:00 18.2 -- -- 29 Norte 0 900.5 0.4 85
2019-07-25 22:00:00 20.1 -- -- 20 Norte 0 900 0.3 73
2019-07-25 21:00:00 21.8 -- -- 20 Norte 0 899.4 -0.3 61
2019-07-25 20:00:00 22.4 -- -- 22 Norte 0 900.1 0.6 52
2019-07-25 19:00:00 24.9 -- -- 21 Norte 0 899.7 0.1 42
2019-07-25 18:00:00 25.1 -- -- 30 Norte 0 899.7 -0.1 41
2019-07-25 17:00:00 26.3 -- -- 35 Norte 0 899.5 -0.2 36
2019-07-25 16:00:00 27.1 -- -- 38 Norte 0 899.6 0 33
2019-07-25 15:00:00 27.8 -- -- 40 Norte 0 899.8 0.2 35
2019-07-25 14:00:00 27.7 -- -- 31 Norte 0 899.7 -0.2 36
2019-07-25 13:00:00 28.7 -- -- 42 Norte 0 899.6 -0.4 33
2019-07-25 12:00:00 28 -- -- 27 Norte 0 899.6 -0.6 35
2019-07-25 11:00:00 25.2 -- -- 15 Norte 0 899.9 0.2 47
2019-07-25 10:00:00 22.1 -- -- 10 Norte 0 900 0.5 55
2019-07-25 09:00:00 20.4 -- -- 13 Norte 0 900.2 1.1 60
2019-07-25 08:00:00 17.8 -- -- 15 Norte 0 899.7 0.3 70
2019-07-25 07:00:00 16.5 -- -- 14 Norte 0 899.5 -0.3 73
2019-07-25 06:00:00 16 -- -- 11 Norte 0 899.1 -0.9 76
2019-07-25 05:00:00 16.1 -- -- 7 Norte 0 899.4 -0.7 73
2019-07-25 04:00:00 16.1 -- -- 8 Norte 0 899.8 -0.5 70
2019-07-25 03:00:00 17.4 -- -- 5 Norte 0 900 -0.6 62
2019-07-25 02:00:00 20.1 -- -- 18 Norte 0 900.1 -0.6 51
2019-07-25 01:00:00 21.5 -- -- 18 Norte 0 900.3 0.3 49
2019-07-25 00:00:00 22.6 -- -- 18 Norte 0 900.6 0.8 48
2019-07-24 23:00:00 23.8 -- -- 15 Norte 0 900.7 1 48
2019-07-24 22:00:00 25.1 -- -- 8 Norte 0 900 0.3 42
2019-07-24 21:00:00 29.1 -- -- 19 Norte 0 899.8 -0.1 30
2019-07-24 20:00:00 30.8 -- -- 30 Norte 0 899.7 -0.7 27
2019-07-24 19:00:00 31.4 -- -- 36 Norte 0 899.7 -1.1 25
2019-07-24 18:00:00 31.5 -- -- 41 Norte 0 899.9 -1.2 27
2019-07-24 17:00:00 31.5 -- -- 36 Norte 0 900.4 -1 28
2019-07-24 16:00:00 31.6 -- -- 35 Norte 0 900.8 -1 29
2019-07-24 15:00:00 30.5 -- -- 31 Norte 0 901.1 -1.3 33
2019-07-24 14:00:00 28.9 -- -- 32 Norte 0 901.4 -1.1 39
2019-07-24 13:00:00 27.4 -- -- 23 Norte 0 901.8 -0.7 46
2019-07-24 12:00:00 26.6 -- -- 17 Norte 0 902.4 -0.1 49
2019-07-24 11:00:00 24 -- -- 16 Norte 0 902.5 0 58
2019-07-24 10:00:00 21.9 -- -- 17 Norte 0 902.5 0 64
2019-07-24 09:00:00 20.6 -- -- 15 Norte 0 902.5 -0.1 73
2019-07-24 08:00:00 16.9 -- -- 10 Norte 0 902.5 -0.2 90
2019-07-24 07:00:00 16.5 -- -- 7 Norte 0 902.5 -0.4 89
2019-07-24 06:00:00 17.3 -- -- 11 Norte 0 902.6 -0.3 83
2019-07-24 05:00:00 18.3 -- -- 14 Norte 0 902.7 -1.1 80
2019-07-24 04:00:00 18.5 -- -- 23 Norte 0 902.9 -0.5 87
2019-07-24 03:00:00 18 -- -- 23 Norte 0 902.9 -0.5 92
2019-07-24 02:00:00 18.1 -- -- 24 Norte 0 903.8 0.7 90
2019-07-24 01:00:00 20 -- -- 17 Norte 0 903.4 0.3 80
2019-07-24 00:00:00 21.2 -- -- 17 Norte 0 903.4 0.4 74
2019-07-23 23:00:00 22.3 -- -- 19 Norte 0 903.1 0.5 69
2019-07-23 22:00:00 21.2 -- -- 31 Norte 0 903.1 1.4 71
2019-07-23 21:00:00 20.7 -- -- 32 Norte 0 903 1.5 74
2019-07-23 20:00:00 20.3 -- -- 39 Norte 5.8 902.6 0.6 80
2019-07-23 19:00:00 30.2 -- -- 30 Norte 0 901.7 -0.8 36
2019-07-23 18:00:00 32.2 -- -- 31 Norte 0 901.5 -1.3 31
2019-07-23 17:00:00 32 -- -- 30 Norte 0 902 -1.4 32
2019-07-23 16:00:00 30.1 -- -- 30 Norte 0 902.5 -1.2 37
2019-07-23 15:00:00 30.2 14 Este 32 Norte 0 902.8 -0.7 37
2019-07-23 14:00:00 29.1 14 Este 28 Norte 0 903.4 -0.2 41
2019-07-23 13:00:00 27.5 12 Este 23 Norte 0 903.7 -0.5 45
2019-07-23 12:00:00 25.4 6 Este 14 Norte 0 903.5 -1.2 52
2019-07-23 11:00:00 22.3 6 Este 15 Norte 0 903.6 -0.7 64
2019-07-23 10:00:00 21.9 9 Este 20 Norte 0 904.2 -0.4 66
2019-07-23 09:00:00 20.5 6 Este 13 Norte 0 904.7 0.3 69
2019-07-23 08:00:00 18.5 3 Este 9 Norte 0 904.3 0.3 71
2019-07-23 07:00:00 16.1 2 Este 7 Norte 0 904.6 0.5 76
2019-07-23 06:00:00 16.8 0 Calma 9 Norte 0 904.4 -0.9 73
2019-07-23 05:00:00 18.9 4 Este 9 Norte 0 904 -1.7 66
2019-07-23 04:00:00 18.5 6 Este 9 Norte 0 904.1 -0.4 70
2019-07-23 03:00:00 19.7 4 Este 15 Norte 0 905.3 -0.2 65
2019-07-23 02:00:00 20.3 3 Este 29 Norte 0 905.7 -1.4 63
2019-07-23 01:00:00 20.9 12 Este 30 Norte 0 904.5 -2.3 62
2019-07-23 00:00:00 21 12 Este 25 Norte 0.1 905.5 -0.1 63
2019-07-22 23:00:00 22.2 6 Este 13 Norte 0 907.1 3.5 52
2019-07-22 22:00:00 23.9 0 Calma 27 Norte 0 906.8 3.3 41
2019-07-22 21:00:00 25.5 16 Este 69 Norte 0 905.6 1.5 34
2019-07-22 20:00:00 34.5 13 Este 27 Norte 0 903.6 -0.7 25
2019-07-22 19:00:00 34.6 10 Este 31 Norte 0 903.5 -1.3 26
2019-07-22 18:00:00 34.2 16 Este 27 Norte 0 904.1 -1.2 26
2019-07-22 17:00:00 33.3 14 Este 27 Norte 0 904.3 -1.5 28
2019-07-22 16:00:00 33.6 12 Este 30 Norte 0 904.8 -1.6 29
2019-07-22 15:00:00 32.9 9 Este 22 Norte 0 905.3 -1.4 32
2019-07-22 14:00:00 31.2 13 Este 25 Norte 0 905.8 -1.1 36
2019-07-22 13:00:00 30.1 9 Este 18 Norte 0 906.4 -0.6 40
2019-07-22 12:00:00 27.8 5 Este 13 Norte 0 906.7 -0.2 45
2019-07-22 11:00:00 25.5 6 Este 15 Norte 0 906.9 0.2 52
2019-07-22 10:00:00 24 7 Este 12 Norte 0 907 0.4 59
2019-07-22 09:00:00 21.4 3 Este 7 Norte 0 906.9 0.2 75
2019-07-22 08:00:00 16.7 5 Este 9 Norte 0 906.7 0 93
2019-07-22 07:00:00 15.6 4 Este 6 Norte 0 906.6 -0.5 94
2019-07-22 06:00:00 16 0 Calma 7 Norte 0 906.7 -0.7 91
2019-07-22 05:00:00 16.8 8 Este 11 Norte 0 906.7 -1.1 89
2019-07-22 04:00:00 16.6 6 Este 8 Norte 0 907.1 -0.6 84
2019-07-22 03:00:00 18 5 Este 14 Norte 0 907.4 0.5 77
2019-07-22 02:00:00 19.2 8 Este 15 Norte 0 907.8 1.3 69
2019-07-22 01:00:00 21.9 10 Este 33 Norte 0 907.7 2 60
2019-07-22 00:00:00 21.8 6 Este 10 Norte 0 906.9 1.2 55
2019-07-21 23:00:00 23.6 5 Este 16 Norte 0 906.5 1.4 49
2019-07-21 22:00:00 25.6 10 Este 19 Norte 0 905.7 1 42
2019-07-21 21:00:00 28.7 12 Este 26 Norte 0 905.7 1 35
2019-07-21 20:00:00 30.2 17 Este 28 Norte 0 905.1 0.1 31
2019-07-21 19:00:00 32.5 8 Este 25 Norte 0 904.7 -0.6 25
2019-07-21 18:00:00 32.3 9 Este 24 Norte 0 904.7 -0.9 23
2019-07-21 17:00:00 32.1 13 Este 24 Norte 0 905 -1 25
2019-07-21 16:00:00 30.8 11 Este 27 Norte 0 905.3 -1 27
2019-07-21 15:00:00 29.2 10 Este 24 Norte 0 905.6 -0.9 34
2019-07-21 14:00:00 28.1 13 Este 24 Norte 0 906 -0.4 40
2019-07-21 13:00:00 27 9 Este 18 Norte 0 906.3 -0.1 43
2019-07-21 12:00:00 24.8 6 Este 12 Norte 0 906.5 0.3 51
2019-07-21 11:00:00 22.3 2 Este 10 Norte 0 906.4 0.4 60
2019-07-21 10:00:00 20.3 2 Este 7 Norte 0 906.4 0.5 70
2019-07-21 09:00:00 18.2 5 Este 10 Norte 0 906.2 0.6 81
2019-07-21 08:00:00 14.4 6 Este 9 Norte 0 906 0.5 95
2019-07-21 07:00:00 12.8 3 Este 7 Norte 0 905.9 0.4 92
2019-07-21 06:00:00 14.1 6 Este 8 Norte 0 905.6 0 89
2019-07-21 05:00:00 14.1 5 Este 11 Norte 0 905.5 -0.3 87
2019-07-21 04:00:00 13.9 6 Este 10 Norte 0 905.5 0.3 86
2019-07-21 03:00:00 14.8 8 Este 12 Norte 0 905.6 1 81
2019-07-21 02:00:00 17.3 7 Este 23 Norte 0 905.8 1.6 74
2019-07-21 01:00:00 19.2 10 Este 25 Norte 0 905.2 1.7 62
2019-07-21 00:00:00 20.2 13 Este 26 Norte 0 904.6 1.6 55
2019-07-20 23:00:00 20.7 9 Este 24 Norte 0 904.2 1.7 54
2019-07-20 22:00:00 22.2 17 Este 34 Norte 0 903.5 1.7 48
2019-07-20 21:00:00 24.8 18 Este 37 Norte 0 903 1.1 44
2019-07-20 20:00:00 26.7 24 Este 38 Norte 0 902.5 0.8 40
2019-07-20 19:00:00 29.2 19 Este 32 Norte 0 901.8 0 33
2019-07-20 18:00:00 29.6 16 Este 31 Norte 0 901.9 0.1 33
2019-07-20 17:00:00 30.2 11 Este 27 Norte 0 901.7 -0.4 34
2019-07-20 16:00:00 28.2 18 Este 34 Norte 0 901.8 -0.3 36
2019-07-20 15:00:00 29.9 10 Este 21 Norte 0 901.8 -0.4 33
2019-07-20 14:00:00 29.6 8 Este 19 Norte 0 902.1 0 34
2019-07-20 13:00:00 27.2 8 Este 21 Norte 0 902.1 0.4 37
2019-07-20 12:00:00 25.8 13 Este 26 Norte 0 902.2 0.7 40
2019-07-20 11:00:00 25 16 Este 26 Norte 0 902.1 1.1 40
2019-07-20 10:00:00 23.3 9 Este 17 Norte 0 901.7 0.7 51
2019-07-20 09:00:00 21.1 3 Este 6 Norte 0 901.5 1 65
2019-07-20 08:00:00 16.6 4 Este 12 Norte 0 901 0.5 78
2019-07-20 07:00:00 14.3 0 Calma 8 Norte 0 901 0.6 82
2019-07-20 06:00:00 15.8 0 Calma 11 Norte 0 900.5 0 72
2019-07-20 05:00:00 17.7 5 Este 10 Norte 0 900.5 0 68
2019-07-20 04:00:00 18.2 5 Este 18 Norte 0 900.4 -0.4 66
2019-07-20 03:00:00 18.5 12 Este 21 Norte 0 900.5 -0.3 66
2019-07-20 02:00:00 20.9 7 Este 16 Norte 0 900.5 -0.1 61
2019-07-20 01:00:00 20.4 5 Este 17 Norte 0 900.8 0.7 66
2019-07-20 00:00:00 20.8 9 Este 19 Norte 0 900.8 0.9 65
2019-07-19 23:00:00 22.7 8 Este 25 Norte 0 900.6 1.1 57
2019-07-19 22:00:00 24.7 14 Este 27 Norte 0 900.1 1 39
2019-07-19 21:00:00 27.4 20 Este 31 Norte 0 899.9 0.5 30
2019-07-19 20:00:00 29.2 21 Este 36 Norte 0 899.5 -0.2 29
2019-07-19 19:00:00 30.7 19 Este 34 Norte 0 899.1 -0.9 28
2019-07-19 18:00:00 30.9 12 Este 27 Norte 0 899.4 -1.2 28
2019-07-19 17:00:00 30.7 8 Este 42 Norte 0 899.7 -1.5 27
2019-07-19 16:00:00 30.8 15 Este 30 Norte 0 900 -1.8 24
2019-07-19 15:00:00 30.8 14 Este 30 Norte 0 900.6 -1.6 24
2019-07-19 14:00:00 29.4 16 Este 30 Norte 0 901.2 -1.5 27
2019-07-19 13:00:00 28 14 Este 25 Norte 0 901.8 -1.2 32
2019-07-19 12:00:00 25.9 8 Este 16 Norte 0 902.2 -0.7 37
2019-07-19 11:00:00 23.7 11 Este 18 Norte 0 902.7 -0.3 41
2019-07-19 10:00:00 22 6 Este 15 Norte 0 903 -0.1 45
2019-07-19 09:00:00 19.3 6 Este 15 Norte 0 902.9 -0.2 59
2019-07-19 08:00:00 14.4 4 Este 7 Norte 0 903 -0.4 85
2019-07-19 07:00:00 12.5 0 Calma 5 Norte 0 903.1 -0.6 85
2019-07-19 06:00:00 13.5 3 Este 8 Norte 0 903.1 -0.9 80
2019-07-19 05:00:00 14.6 6 Este 10 Norte 0 903.4 -0.7 78
2019-07-19 04:00:00 15.6 6 Este 10 Norte 0 903.7 -0.1 75
2019-07-19 03:00:00 15.9 5 Este 7 Norte 0 904 1 69
2019-07-19 02:00:00 17.1 0 Calma 10 Norte 0 904.1 1.3 64
2019-07-19 01:00:00 19.4 8 Este 17 Norte 0 903.8 1.5 57
2019-07-19 00:00:00 20.5 5 Este 10 Norte 0 903 1 46